Wilsonburg, West Virginia
Current Conditions -  °F | °C
As of 3:53 AM on Sunday 26 Oct 2014 (Local Time) from KCKB Reporting Station
Clear Clear  
Wind Chill: 54°   Ceiling: Unl
Heat Index: 54°   Visibility: 10mi
Dew Point: 36°   Wind: 3mph
Humidity: 51%   Direction: 310°NW
Pressure: 29.85"   Gusts: NA
Location:  39.29°N, 80.4°W
Report Text: KCKB 260753Z AUTO 31003KT 10SM CLR 12/02 A2985 RMK AO2 SLP100 T01220022
Loading
Personal Weather Stations






























Interactive Weather Map New forecast layout! Learn more

10-Day Weather Forecast

Advertisements
Track Severe Weather on mobile